Home > Products > Valid Products > TAF

000
FTUS46 KMFR 012300
TAFLMT
TAF
KLMT 012320Z 0200/0224 02005KT P6SM SKC
     FM020400 VRB03KT P6SM SKC=



000
FTUS46 KMFR 012300
TAFOTH
TAF
KOTH 012320Z 0200/0224 36015G25KT P6SM SKC
     FM020400 36006KT P6SM SKC
     FM022000 36014G20KT P6SM SKC=



000
FTUS46 KMFR 012300
TAFMFR
TAF
KMFR 012320Z 0200/0224 31005KT P6SM SKC
     FM020400 VRB03KT P6SM SKC=



000
FTUS46 KMFR 012300
TAFRBG
TAF
KRBG 012320Z 0200/0224 36011KT P6SM SKC
     FM020400 36002KT P6SM SKC
     FM022200 35009KT P6SM SKC=



000
FTUS46 KMFR 011800 CCA
TAFRBG
TAF COR
KRBG 011802Z 0118/0218 02005KT P6SM SCT014
     FM012200 36011KT P6SM SKC
     FM020400 36004KT P6SM SKC=



000
FTUS46 KMFR 011700
TAFLMT
TAF
KLMT 011731Z 0118/0218 16006KT P6SM SKC
     FM020000 36005KT P6SM SKC
     FM020400 00000KT P6SM SKC=



000
FTUS46 KMFR 011700
TAFRBG
TAF
KRBG 011731Z 0118/0218 VRB03KT P6SM OVC009
     FM012200 36011KT P6SM SKC
     FM020400 36004KT P6SM SKC=



000
FTUS46 KMFR 011700
TAFMFR
TAF
KMFR 011731Z 0118/0218 VRB03KT P6SM SKC
     FM012200 31005KT P6SM SKC
     FM020400 00000KT P6SM SKC=



000
FTUS46 KMFR 011700
TAFOTH
TAF
KOTH 011731Z 0118/0218 12003KT P6SM SKC
     FM012000 36010G20KT P6SM SKC
     FM012200 36015G25KT P6SM SKC
     FM020400 36007KT P6SM SKC
     FM020600 02004KT P6SM SKC=



000
FTUS46 KMFR 011400 AAB
TAFRBG
TAF AMD
KRBG 011453Z 0115/0212 35003KT P6SM OVC008
     FM011700 01004KT P6SM FEW012
     FM012000 36009KT P6SM SKC
     FM020400 36004KT P6SM SKC=



000
FTUS46 KMFR 011300 AAA
TAFOTH
TAF AMD
KOTH 011339Z 0114/0212 14003KT P6SM SCT002
      TEMPO 0114/0115 6SM BR BKN002
     FM011500 VRB04KT P6SM SKC
     FM011900 36010G20KT P6SM SKC
     FM012200 36015G25KT P6SM SKC
     FM020400 02007KT P6SM SKC=



000
FTUS46 KMFR 011200 AAA
TAFRBG
TAF AMD
KRBG 011239Z 0113/0212 00000KT 4SM BR SCT003 OVC012
     FM011700 01004KT P6SM FEW015
     FM012000 36009KT P6SM SKC
     FM020400 36004KT P6SM SKC=



000
FTUS46 KMFR 011100
TAFRBG
TAF
KRBG 011131Z 0112/0212 00000KT 6SM BR SCT006
     FM011300 00000KT 4SM BR OVC006
     FM011700 01004KT P6SM FEW015
     FM012000 36009KT P6SM SKC
     FM020400 36004KT P6SM SKC=



000
FTUS46 KMFR 011100
TAFMFR
TAF
KMFR 011131Z 0112/0212 VRB04KT P6SM SKC
     FM012200 33006KT P6SM SKC
     FM020400 VRB03KT P6SM SKC=



000
FTUS46 KMFR 011100
TAFOTH
TAF
KOTH 011131Z 0112/0212 14003KT 1/2SM FG OVC002
     FM011500 VRB04KT P6SM FEW005
     FM011900 36010G20KT P6SM SKC
     FM012200 36015G25KT P6SM SKC
     FM020400 02007KT P6SM SKC=



000
FTUS46 KMFR 011100
TAFLMT
TAF
KLMT 011131Z 0112/0212 VRB03KT P6SM SKC
     FM011800 09003KT P6SM SKC
     FM020000 36005KT P6SM SKC
     FM020400 VRB03KT P6SM SKC=



000
FTUS46 KMFR 011000 AAB
TAFOTH
TAF AMD
KOTH 011055Z 0111/0206 09003KT 1/2SM FG OVC002
      TEMPO 0111/0114 1/4SM FG OVC001
     FM011500 03006KT P6SM SKC
     FM011900 36012G20KT P6SM SKC
     FM020400 02007KT P6SM FEW008=



000
FTUS46 KMFR 011000 AAA
TAFRBG
TAF AMD
KRBG 011054Z 0111/0206 00000KT P6SM SCT007
     FM011130 00000KT 4SM BR OVC006
     FM011700 01006KT P6SM FEW015=



000
FTUS46 KMFR 010900 AAA
TAFOTH
TAF AMD
KOTH 010923Z 0109/0206 09003KT 2SM BR OVC002
      TEMPO 0109/0113 1/2SM FG OVC002
     FM011500 03006KT P6SM SKC
     FM011900 36012G20KT P6SM SKC
     FM020400 02007KT P6SM FEW008=



000
FTUS46 KMFR 010500 RRA
TAFLMT
TAF
KLMT 010555Z 0106/0206 33005KT P6SM SKC
     FM012000 09004KT P6SM SKC=



000
FTUS46 KMFR 010500 RRA
TAFMFR
TAF
KMFR 010555Z 0106/0206 33006KT P6SM FEW050=



000
FTUS46 KMFR 010500 RRA
TAFRBG
TAF
KRBG 010555Z 0106/0206 35007KT P6SM SCT050
     FM011200 VRB03KT 4SM BR OVC006
     FM011700 01006KT P6SM FEW015=



000
FTUS46 KMFR 010500 RRA
TAFOTH
TAF
KOTH 010555Z 0106/0206 06006KT P6SM FEW012
     FM011100 09003KT 2SM BR SCT002
     FM011500 03006KT P6SM SKC
     FM011900 36012G20KT P6SM SKC
     FM020400 02007KT P6SM FEW008=



000
FTUS46 KMFR 010200 AAA
TAFOTH
TAF AMD
KOTH 010229Z 0102/0124 01009KT P6SM FEW080
     FM010600 06006KT P6SM FEW012
     FM011100 09003KT 2SM BR SCT002
     FM011500 03006KT P6SM SKC
     FM011900 36012G20KT P6SM SKC=



000
FTUS46 KMFR 302300
TAFLMT
TAF
KLMT 302331Z 0100/0124 33013KT P6SM SKC
     FM010400 33005KT P6SM SKC
     FM012000 09004KT P6SM SKC=



000
FTUS46 KMFR 302300
TAFOTH
TAF
KOTH 302331Z 0100/0124 34012G18KT P6SM SCT020 SCT080
     FM010600 06006KT P6SM FEW012
     FM011100 09003KT 2SM BR SCT002
     FM011500 03006KT P6SM SKC
     FM011900 36012G20KT P6SM SKC=



000
FTUS46 KMFR 302300
TAFRBG
TAF
KRBG 302331Z 0100/0124 35007KT P6SM SCT050
     FM011200 VRB03KT 4SM BR OVC006
     FM011700 01006KT P6SM FEW015=



000
FTUS46 KMFR 302300
TAFMFR
TAF
KMFR 302331Z 0100/0124 33006KT P6SM FEW050=



000
FTUS46 KMFR 301700
TAFRBG
TAF
KRBG 301739Z 3018/0118 00000KT P6SM SCT008 BKN050
     FM301900 36005KT P6SM BKN050
     FM302100 35007KT P6SM SCT050
     FM011200 VRB03KT 4SM BR OVC010
     FM011700 01003KT P6SM FEW015=



000
FTUS46 KMFR 301700
TAFMFR
TAF
KMFR 301739Z 3018/0118 34004KT P6SM SCT040
     FM302200 34007KT P6SM FEW050=



000
FTUS46 KMFR 301700
TAFOTH
TAF
KOTH 301739Z 3018/0118 VRB03KT P6SM FEW020 SCT035 BKN060
     FM302000 33008KT P6SM SCT035 SCT060
     FM302200 34012G18KT P6SM FEW035
     FM010600 02006KT P6SM FEW012
     FM011200 12003KT 5SM BR SCT002
     FM011500 VRB03KT P6SM SKC=



000
FTUS46 KMFR 301700
TAFLMT
TAF
KLMT 301739Z 3018/0118 33010KT P6SM FEW050
     FM302100 33013KT P6SM SKC
     FM010300 33007KT P6SM SKC=



000
FTUS46 KMFR 301700 AAC
TAFOTH
TAF AMD
KOTH 301705Z 3017/0112 VRB03KT P6SM FEW003 SCT025 BKN070
     FM302000 33008KT P6SM SCT025 SCT070
     FM302200 34012G18KT P6SM FEW030
     FM010600 02006KT P6SM FEW012
     FM011000 12003KT 5SM BR SCT002=



000
FTUS46 KMFR 301600 AAB
TAFOTH
TAF AMD
KOTH 301622Z 3016/0112 17007KT P6SM OVC002
     FM302000 33008KT P6SM SCT025 BKN035 BKN060
     FM302200 34012G18KT P6SM SCT035
     FM010600 02006KT P6SM FEW012
     FM011000 12003KT 5SM BR SCT002=



000
FTUS46 KMFR 301600 AAB
TAFRBG
TAF AMD
KRBG 301618Z 3016/0112 00000KT 5SM BR OVC005
     FM301800 00000KT P6SM SCT008 BKN040
     FM301900 36005KT P6SM BKN040
     FM302100 35007KT P6SM SCT040
     FM011000 VRB03KT 4SM BR OVC010=



000
FTUS46 KMFR 301300 AAA
TAFRBG
TAF AMD
KRBG 301302Z 3013/0112 00000KT 4SM BR SCT004 BKN040
      TEMPO 3013/3016 3SM BR BKN004
     FM301800 36005KT P6SM SCT025 BKN040
     FM302100 35007KT P6SM FEW030 BKN040=



000
FTUS46 KMFR 301200 AAA
TAFOTH
TAF AMD
KOTH 301230Z 3013/0112 16003KT 1SM BR BKN002 BKN020 BKN070
     FM301600 17004KT P6SM BKN025
     FM301900 33008KT P6SM SCT025 BKN035 BKN060
     FM302100 33012G18KT P6SM SCT035
     FM010400 36008KT P6SM FEW012=



000
FTUS46 KMFR 301100
TAFRBG
TAF
KRBG 301136Z 3012/0112 35002KT 6SM BR FEW004 SCT030 BKN070
     FM301400 00000KT 3SM BR SCT004 BKN030
     FM301800 36005KT P6SM SCT025 BKN035
     FM302100 35007KT P6SM FEW030 BKN040=



000
FTUS46 KMFR 301100
TAFLMT
TAF
KLMT 301136Z 3012/0112 33007KT P6SM FEW030 BKN050
     FM301800 33010KT P6SM FEW050
     FM302100 33013KT P6SM SKC
     FM010300 33007KT P6SM SKC=



000
FTUS46 KMFR 301100
TAFMFR
TAF
KMFR 301136Z 3012/0112 31003KT P6SM FEW030 BKN060
     FM301400 00000KT P6SM FEW015 SCT030 BKN060
     FM301800 34004KT P6SM SCT040
     FM302200 34007KT P6SM FEW050=



000
FTUS46 KMFR 301100
TAFOTH
TAF
KOTH 301136Z 3012/0112 16003KT 3SM BR BKN003 BKN020 BKN070
     FM301600 17004KT P6SM BKN025
     FM301900 33008KT P6SM SCT025 BKN035 BKN060
     FM302100 33012G18KT P6SM SCT035
     FM010400 36008KT P6SM FEW012=



000
FTUS46 KMFR 301000 AAB
TAFOTH
TAF AMD
KOTH 301051Z 3011/0106 16003KT 2SM BR BKN003 BKN020
     FM301600 17004KT P6SM BKN020 BKN025
     FM302000 33012G18KT P6SM SCT025 BKN035 BKN060=



000
FTUS46 KMFR 301000 AAB
TAFMFR
TAF AMD
KMFR 301001Z 3010/0106 31003KT P6SM SCT030 OVC060
     FM301100 00000KT 5SM BR FEW010 BKN030 BKN060
     FM301800 34006KT P6SM FEW025 SCT040=



000
FTUS46 KMFR 301000 AAC
TAFRBG
TAF AMD
KRBG 301000Z 3010/0106 35002KT P6SM FEW002 SCT030 BKN060
     FM301200 00000KT 5SM BR SCT004 BKN020
     FM301400 VRB02KT 2SM BR SCT002 OVC010
     FM301800 35005KT P6SM BKN015 BKN025 OVC035
     FM302200 35007KT P6SM SCT025 BKN040=



000
FTUS46 KMFR 300900 AAB
TAFRBG
TAF AMD
KRBG 300911Z 3009/0106 35002KT P6SM SCT030 BKN060
     FM301000 00000KT 5SM BR SCT004 BKN020
     FM301400 VRB02KT 2SM BR SCT002 OVC010
     FM301800 35005KT P6SM BKN015 BKN025 OVC035
     FM302200 35007KT P6SM SCT025 BKN040=



000
FTUS46 KMFR 300800 AAA
TAFOTH
TAF AMD
KOTH 300832Z 3009/0106 15005KT P6SM SCT003 BKN018 BKN025
     FM301200 16003KT 2SM BR BKN003 BKN020
     FM301600 17004KT P6SM BKN020 BKN025
     FM302000 33012G18KT P6SM SCT025 BKN035 BKN060=



000
FTUS46 KMFR 300800 AAA
TAFRBG
TAF AMD
KRBG 300829Z 3008/0106 35002KT P6SM SCT030 SCT060
     FM300900 00000KT 5SM BR SCT015 OVC025
     FM301400 VRB02KT 2SM BR SCT002 OVC010
     FM301800 35005KT P6SM BKN015 BKN025 OVC035
     FM302200 35007KT P6SM SCT025 BKN040=



000
FTUS46 KMFR 300800 AAA
TAFMFR
TAF AMD
KMFR 300826Z 3008/0106 31003KT P6SM BKN030 OVC040
     FM301100 00000KT 5SM BR SCT010 BKN025 BKN035
     FM301800 34006KT P6SM FEW025 SCT040=



000
FTUS46 KMFR 300500
TAFMFR
TAF
KMFR 300539Z 3006/0106 31007KT 6SM -RA BR SCT014 OVC035
      TEMPO 3006/3007 5SM -RA BR BKN014 OVC030
     FM300700 31003KT 6SM -SHRA BKN020 OVC035
     FM301000 00000KT 5SM BR BKN010 OVC020
     FM301800 34006KT P6SM FEW025 SCT040=



000
FTUS46 KMFR 300500
TAFLMT
TAF
KLMT 300539Z 3006/0106 30008KT P6SM SCT040 BKN080
     FM301000 29005KT P6SM FEW020 SCT040
     FM301800 32012KT P6SM FEW050=



000
FTUS46 KMFR 300500
TAFRBG
TAF
KRBG 300539Z 3006/0106 35008KT P6SM FEW035 OVC050
     FM300800 00000KT 5SM BR SCT010 OVC020
     FM301400 VRB02KT 2SM BR SCT002 OVC006
     FM301800 35005KT P6SM BKN015 BKN025 OVC035
     FM302200 35007KT P6SM SCT025 BKN040=



000
FTUS46 KMFR 300500
TAFOTH
TAF
KOTH 300539Z 3006/0106 15005KT 1/4SM FG OVC001
     FM301600 17004KT 5SM BR BKN015 OVC025
     FM302000 33012G18KT P6SM SCT025 BKN035 BKN060=



000
FTUS46 KMFR 300400 AAD
TAFRBG
TAF AMD
KRBG 300444Z 3005/3024 34008KT 6SM -RA BR BKN028 OVC035
     FM300800 00000KT 5SM BR BKN010 OVC030
     FM301400 VRB02KT 2SM BR SCT002 OVC006
     FM301800 35005KT P6SM BKN015 BKN025 OVC035
     FM302200 35007KT P6SM SCT025 BKN040=



000
FTUS46 KMFR 300400 AAB
TAFMFR
TAF AMD
KMFR 300442Z 3005/3024 31007KT P6SM -SHRA BKN025 OVC035
     FM300700 31003KT P6SM VCSH BKN020 OVC035
     FM301200 00000KT 6SM BR BKN010 OVC020
     FM301800 34006KT P6SM FEW025 SCT040=



000
FTUS46 KMFR 300200 AAC
TAFRBG
TAF AMD
KRBG 300256Z 3003/3024 34008KT 5SM -RA BR SCT010 OVC020
     FM300700 00000KT 5SM BR BKN010
     FM301400 VRB02KT 2SM BR SCT002 OVC006
     FM301800 35005KT P6SM BKN015 BKN025 OVC035
     FM302200 35007KT P6SM SCT025 BKN040=



000
FTUS46 KMFR 300200 AAA
TAFOTH
TAF AMD
KOTH 300239Z 3003/3024 27006KT P6SM SCT014
     FM300400 25005KT 6SM BR BKN014
     FM300900 14004KT 2SM BR BKN006 OVC014
     FM301600 17004KT 5SM BR BKN015 OVC025
     FM302000 33012G18KT P6SM SCT025 BKN035 BKN060=



000
FTUS46 KMFR 300200 AAA
TAFLMT
TAF AMD
KLMT 300214Z 3002/3024 29011KT P6SM SCT080 BKN200
     FM300600 30006KT P6SM SCT040 BKN080
     FM301000 29005KT P6SM FEW020 SCT040
     FM301800 32012KT P6SM FEW050=



000
FTUS46 KMFR 300200 AAB
TAFRBG
TAF AMD
KRBG 300213Z 3002/3024 36004KT P6SM SCT010 OVC040
     FM300400 36003KT P6SM SCT008 SCT020
     FM300900 00000KT 5SM BR BKN010
     FM301400 VRB02KT 2SM BR SCT002 OVC006
     FM301800 35005KT P6SM BKN015 BKN025 OVC035
     FM302200 35007KT P6SM SCT025 BKN040=



000
FTUS46 KMFR 300100 AAA
TAFMFR
TAF AMD
KMFR 300107Z 3001/3024 32013G20KT P6SM VCSH SCT050 OVC070
     FM300200 32009G15KT P6SM -SHRA BKN035 OVC050
     FM300600 31003KT P6SM BKN020 OVC035
     FM301200 00000KT 6SM BR BKN010 OVC020
     FM301800 34006KT P6SM FEW025 SCT040=



000
FTUS46 KMFR 300000 AAA
TAFRBG
TAF AMD
KRBG 300040Z 3001/3024 36007KT 2SM -RA BR SCT010 OVC025
      TEMPO 3001/3002 1SM -RA BR BKN010 OVC025
     FM300600 VRB03KT P6SM SCT008 SCT020
     FM300900 00000KT 5SM BR BKN010
     FM301400 VRB02KT 2SM BR SCT002 OVC006
     FM301800 35005KT P6SM BKN015 BKN025 OVC035
     FM302200 35007KT P6SM SCT025 BKN040=



000
FTUS46 KMFR 292300
TAFMFR
TAF
KMFR 292327Z 3000/3024 31008KT P6SM VCSH SCT050 OVC070
     FM300300 32005KT P6SM -SHRA BKN035 OVC050
     FM300600 31003KT P6SM BKN020 OVC035
     FM301200 00000KT 6SM BR BKN010 OVC020
     FM301800 34006KT P6SM FEW025 SCT040=



000
FTUS46 KMFR 292300
TAFLMT
TAF
KLMT 292327Z 3000/3024 29014G21KT P6SM SCT080 BKN200
     FM300400 VRB03KT P6SM OVC060
     FM300600 30006KT P6SM SCT040 BKN080 OVC200
     FM301200 29005KT P6SM FEW020 SCT040
     FM301800 32012KT P6SM FEW050=



000
FTUS46 KMFR 292300
TAFOTH
TAF
KOTH 292327Z 3000/3024 26005KT 3SM -SHRA SCT006 BKN012 OVC040
     FM300300 29006KT 6SM BR SCT006 BKN014 OVC060
     FM300900 14004KT 2SM BR BKN006 OVC014
     FM301600 17004KT 5SM BR BKN015 OVC025
     FM302000 33012G18KT P6SM SCT025 BKN035 BKN060=



000
FTUS46 KMFR 292300
TAFRBG
TAF
KRBG 292327Z 3000/3024 36007KT 3SM -RA BR BKN025 OVC035
     FM300300 33003KT 6SM -SHRA SCT007 BKN015 OVC025
     FM300600 VRB03KT P6SM SCT008 SCT020
     FM300900 00000KT 5SM BR BKN010
     FM301400 VRB02KT 2SM BR SCT002 OVC006
     FM301800 35005KT P6SM BKN015 BKN025 OVC035
     FM302200 35007KT P6SM SCT025 BKN040=



000
FTUS46 KMFR 292200 AAB
TAFOTH
TAF AMD
KOTH 292209Z 2922/3018 25008KT 3SM -RA BR BKN008 OVC012
     FM300000 29012G20KT 5SM -SHRA BR SCT006 BKN010 OVC020
     FM300300 VRB03KT P6SM OVC015
     FM301700 34010KT P6SM SCT015 BKN040=



000
FTUS46 KMFR 292000 AAA
TAFOTH
TAF AMD
KOTH 292024Z 2920/3018 25008KT 5SM -RA BR SCT010 BKN020 OVC040
     FM300000 29012G20KT 4SM -SHRA BR SCT006 BKN010 OVC020
     FM300300 VRB03KT P6SM OVC015
     FM301700 34010KT P6SM SCT015 BKN040=



000
FTUS46 KMFR 291700
TAFRBG
TAF
KRBG 291720Z 2918/3018 VRB03KT P6SM SCT005 BKN025
     FM292000 18010KT P6SM SCT025 OVC050
     FM300100 36010KT P6SM -SHRA OVC025
     FM300400 VRB03KT P6SM OVC020=



000
FTUS46 KMFR 291700
TAFOTH
TAF
KOTH 291720Z 2918/3018 16010KT P6SM -RA SCT025 OVC040
     FM300000 29012G20KT P6SM -SHRA OVC020
     FM300300 VRB03KT P6SM OVC015
     FM301700 34010KT P6SM SCT015 BKN040=



000
FTUS46 KMFR 291700
TAFLMT
TAF
KLMT 291720Z 2918/3018 VRB03KT P6SM SCT080
     FM292300 33011KT P6SM SCT060
     FM300400 VRB03KT P6SM OVC060=



000
FTUS46 KMFR 291700
TAFMFR
TAF
KMFR 291720Z 2918/3018 VRB03KT P6SM SCT040
     FM292200 32008KT P6SM OVC040
     FM300300 VRB03KT P6SM OVC040=



000
FTUS46 KMFR 291100 AAA
TAFRBG
TAF AMD
KRBG 291151Z 2912/3012 35006KT P6SM SCT008
      TEMPO 2912/2915 2SM BR BKN008
     FM291800 00000KT P6SM SCT012
     FM292100 30005KT P6SM -SHRA BKN030 BKN080
     FM300800 00000KT P6SM BKN015=



000
FTUS46 KMFR 291100 RRA
TAFLMT
TAF
KLMT 291148Z 2912/3012 VRB03KT P6SM SCT050
      TEMPO 2913/2916 3SM BR SCT003
     FM291600 28004KT P6SM FEW025
     FM292100 30011G18KT P6SM SKC
     FM300600 30006KT P6SM VCSH SCT015 BKN040=



000
FTUS46 KMFR 291100 RRA
TAFRBG
TAF
KRBG 291148Z 2912/3012 35006KT 3SM BR SCT008
      TEMPO 2912/2915 1SM BR BKN008
     FM291800 00000KT P6SM SCT012
     FM292100 30005KT P6SM -SHRA BKN030 BKN080
     FM300800 00000KT P6SM BKN015=



000
FTUS46 KMFR 291100 RRA
TAFMFR
TAF
KMFR 291148Z 2912/3012 VRB03KT P6SM SKC
     FM291400 00000KT P6SM FEW035
     FM292200 32008KT P6SM FEW050 SCT100
     FM300200 32005KT P6SM -SHRA BKN030 BKN070=



000
FTUS46 KMFR 291100 RRA
TAFOTH
TAF
KOTH 291148Z 2912/3012 35003KT P6SM VCFG OVC014
      TEMPO 2912/2916 3SM BR OVC008
     FM291900 16007KT P6SM -SHRA SCT008 OVC015
     FM300100 30010G20KT P6SM -SHRA BKN020
     FM300500 34008KT P6SM OVC015=



000
FTUS46 KMFR 291000 AAA
TAFOTH
TAF AMD
KOTH 291053Z 2911/3006 35003KT P6SM VCFG OVC014
      TEMPO 2912/2916 3SM BR OVC008
     FM291800 16007KT P6SM -SHRA SCT008 OVC015=



000
FTUS46 KMFR 290500
TAFOTH
TAF
KOTH 290539Z 2906/3006 35003KT P6SM VCFG BKN012
     FM291000 15003KT 3SM BR OVC006
     FM291100 VRB03KT 3/4SM BR OVC003
     FM291800 16007KT P6SM -SHRA SCT008 OVC015=



000
FTUS46 KMFR 290500
TAFRBG
TAF
KRBG 290539Z 2906/3006 35006KT P6SM SKC
     FM291200 00000KT P6SM SCT006 BKN010
     FM291800 00000KT P6SM BKN020
     FM291900 30005KT P6SM SCT030 BKN070 BKN200=



000
FTUS46 KMFR 290500
TAFMFR
TAF
KMFR 290539Z 2906/3006 VRB03KT P6SM SKC
     FM291400 00000KT P6SM FEW035
     FM291900 32005KT P6SM FEW050 SCT100=



000
FTUS46 KMFR 290500
TAFLMT
TAF
KLMT 290539Z 2906/3006 VRB03KT P6SM OVC050
     FM290900 VRB03KT P6SM FEW060 BKN200
     FM291300 VRB03KT 2SM BR FEW003 SCT008
     FM291600 28004KT P6SM FEW025
     FM292100 30011G18KT P6SM SKC=



000
FTUS46 KMFR 290400 AAA
TAFOTH
TAF AMD
KOTH 290414Z 2904/2924 35005KT P6SM VCFG FEW012
     FM290700 15003KT 3SM BR OVC006
     FM290900 VRB03KT 3/4SM BR OVC003
     FM291800 16007KT P6SM -SHRA SCT008 OVC015=



    US Dept of Commerce
    National Oceanic and Atmospheric Administration
    National Weather Service
    1325 East West Highway
    Silver Spring, MD 20910
    Page Author: NWS Internet Services Team
Disclaimer
Information Quality
Credits
Glossary
Privacy Policy
Freedom of Information Act (FOIA)
About Us
Career Opportunities